sensor_id;sensor_type;location;lat;lon;timestamp;pressure;altitude;pressure_sealevel;temperature
74750;BMP280;63269;53.330;-6.288;2023-03-23T00:01:31;98549.50;;;20.71
74750;BMP280;63269;53.330;-6.288;2023-03-23T00:04:03;98546.84;;;20.71
74750;BMP280;63269;53.330;-6.288;2023-03-23T00:06:28;98546.84;;;20.71
74750;BMP280;63269;53.330;-6.288;2023-03-23T00:09:00;98564.03;;;20.70
74750;BMP280;63269;53.330;-6.288;2023-03-23T00:11:30;98564.03;;;20.70
74750;BMP280;63269;53.330;-6.288;2023-03-23T00:13:57;98580.53;;;20.69
74750;BMP280;63269;53.330;-6.288;2023-03-23T00:16:27;98580.53;;;20.69
74750;BMP280;63269;53.330;-6.288;2023-03-23T00:19:05;98570.31;;;20.67
74750;BMP280;63269;53.330;-6.288;2023-03-23T00:21:36;98570.31;;;20.67
74750;BMP280;63269;53.330;-6.288;2023-03-23T00:24:09;98563.56;;;20.66
74750;BMP280;63269;53.330;-6.288;2023-03-23T00:26:37;98562.84;;;20.66
74750;BMP280;63269;53.330;-6.288;2023-03-23T00:29:06;98562.84;;;20.66
74750;BMP280;63269;53.330;-6.288;2023-03-23T00:31:32;98565.25;;;20.64
74750;BMP280;63269;53.330;-6.288;2023-03-23T00:34:00;98565.25;;;20.64
74750;BMP280;63269;53.330;-6.288;2023-03-23T00:36:27;98561.88;;;20.63
74750;BMP280;63269;53.330;-6.288;2023-03-23T00:38:53;98563.06;;;20.62
74750;BMP280;63269;53.330;-6.288;2023-03-23T00:41:19;98547.81;;;20.63
74750;BMP280;63269;53.330;-6.288;2023-03-23T00:43:44;98564.28;;;20.61
74750;BMP280;63269;53.330;-6.288;2023-03-23T00:46:10;98566.25;;;20.61
74750;BMP280;63269;53.330;-6.288;2023-03-23T00:48:36;98566.25;;;20.61
74750;BMP280;63269;53.330;-6.288;2023-03-23T00:51:10;98565.97;;;20.58
74750;BMP280;63269;53.330;-6.288;2023-03-23T00:53:37;98564.53;;;20.57
74750;BMP280;63269;53.330;-6.288;2023-03-23T00:56:02;98571.78;;;20.57
74750;BMP280;63269;53.330;-6.288;2023-03-23T00:58:28;98569.84;;;20.57
74750;BMP280;63269;53.330;-6.288;2023-03-23T01:00:53;98567.66;;;20.56
74750;BMP280;63269;53.330;-6.288;2023-03-23T01:03:19;98567.66;;;20.56
74750;BMP280;63269;53.330;-6.288;2023-03-23T01:05:45;98589.44;;;20.54
74750;BMP280;63269;53.330;-6.288;2023-03-23T01:08:13;98570.06;;;20.54
74750;BMP280;63269;53.330;-6.288;2023-03-23T01:10:39;98575.41;;;20.54
74750;BMP280;63269;53.330;-6.288;2023-03-23T01:13:06;98575.41;;;20.54
74750;BMP280;63269;53.330;-6.288;2023-03-23T01:15:31;98579.03;;;20.51
74750;BMP280;63269;53.330;-6.288;2023-03-23T01:17:57;98579.03;;;20.51
74750;BMP280;63269;53.330;-6.288;2023-03-23T01:20:24;98581.72;;;20.51
74750;BMP280;63269;53.330;-6.288;2023-03-23T01:22:51;98582.44;;;20.51
74750;BMP280;63269;53.330;-6.288;2023-03-23T01:25:18;98574.69;;;20.48
74750;BMP280;63269;53.330;-6.288;2023-03-23T01:27:43;98571.53;;;20.49
74750;BMP280;63269;53.330;-6.288;2023-03-23T01:30:11;98572.03;;;20.48
74750;BMP280;63269;53.330;-6.288;2023-03-23T01:32:37;98581.94;;;20.47
74750;BMP280;63269;53.330;-6.288;2023-03-23T01:35:03;98588.00;;;20.48
74750;BMP280;63269;53.330;-6.288;2023-03-23T01:37:29;98597.19;;;20.47
74750;BMP280;63269;53.330;-6.288;2023-03-23T01:39:56;98597.19;;;20.47
74750;BMP280;63269;53.330;-6.288;2023-03-23T01:42:26;98595.72;;;20.46
74750;BMP280;63269;53.330;-6.288;2023-03-23T01:47:19;98602.25;;;20.45
74750;BMP280;63269;53.330;-6.288;2023-03-23T01:49:48;98597.66;;;20.45
74750;BMP280;63269;53.330;-6.288;2023-03-23T01:52:26;98580.94;;;20.45
74750;BMP280;63269;53.330;-6.288;2023-03-23T01:54:55;98576.59;;;20.42
74750;BMP280;63269;53.330;-6.288;2023-03-23T01:57:23;98576.59;;;20.42
74750;BMP280;63269;53.330;-6.288;2023-03-23T01:59:52;98574.69;;;20.42
74750;BMP280;63269;53.330;-6.288;2023-03-23T02:02:20;98566.69;;;20.42
74750;BMP280;63269;53.330;-6.288;2023-03-23T02:04:46;98566.69;;;20.42
74750;BMP280;63269;53.330;-6.288;2023-03-23T02:07:14;98569.09;;;20.40
74750;BMP280;63269;53.330;-6.288;2023-03-23T02:09:40;98565.72;;;20.40
74750;BMP280;63269;53.330;-6.288;2023-03-23T02:12:06;98562.31;;;20.39
74750;BMP280;63269;53.330;-6.288;2023-03-23T02:14:32;98563.53;;;20.38
74750;BMP280;63269;53.330;-6.288;2023-03-23T02:19:55;98555.53;;;20.38
74750;BMP280;63269;53.330;-6.288;2023-03-23T02:25:32;98529.16;;;20.34
74750;BMP280;63269;53.330;-6.288;2023-03-23T02:30:43;98531.09;;;20.34
74750;BMP280;63269;53.330;-6.288;2023-03-23T02:41:23;98530.59;;;20.30
74750;BMP280;63269;53.330;-6.288;2023-03-23T02:43:50;98529.88;;;20.29
74750;BMP280;63269;53.330;-6.288;2023-03-23T02:46:16;98522.63;;;20.30
74750;BMP280;63269;53.330;-6.288;2023-03-23T02:48:43;98522.63;;;20.30
74750;BMP280;63269;53.330;-6.288;2023-03-23T02:51:10;98525.75;;;20.28
74750;BMP280;63269;53.330;-6.288;2023-03-23T02:53:40;98515.81;;;20.29
74750;BMP280;63269;53.330;-6.288;2023-03-23T02:56:06;98510.28;;;20.27
74750;BMP280;63269;53.330;-6.288;2023-03-23T02:58:33;98513.66;;;20.27
74750;BMP280;63269;53.330;-6.288;2023-03-23T03:00:59;98513.66;;;20.27
74750;BMP280;63269;53.330;-6.288;2023-03-23T03:03:28;98520.19;;;20.26
74750;BMP280;63269;53.330;-6.288;2023-03-23T03:06:10;98517.28;;;20.24
74750;BMP280;63269;53.330;-6.288;2023-03-23T03:08:51;98517.28;;;20.24
74750;BMP280;63269;53.330;-6.288;2023-03-23T03:11:19;98523.78;;;20.23
74750;BMP280;63269;53.330;-6.288;2023-03-23T03:13:52;98523.78;;;20.23
74750;BMP280;63269;53.330;-6.288;2023-03-23T03:16:40;98516.78;;;20.20
74750;BMP280;63269;53.330;-6.288;2023-03-23T03:19:41;98516.78;;;20.20
74750;BMP280;63269;53.330;-6.288;2023-03-23T03:22:08;98507.34;;;20.19
74750;BMP280;63269;53.330;-6.288;2023-03-23T03:24:35;98513.91;;;20.18
74750;BMP280;63269;53.330;-6.288;2023-03-23T03:27:10;98501.31;;;20.18
74750;BMP280;63269;53.330;-6.288;2023-03-23T03:29:39;98493.34;;;20.18
74750;BMP280;63269;53.330;-6.288;2023-03-23T03:32:16;98493.34;;;20.18
74750;BMP280;63269;53.330;-6.288;2023-03-23T03:34:42;98482.44;;;20.16
74750;BMP280;63269;53.330;-6.288;2023-03-23T03:37:08;98486.53;;;20.17
74750;BMP280;63269;53.330;-6.288;2023-03-23T03:39:37;98476.38;;;20.16
74750;BMP280;63269;53.330;-6.288;2023-03-23T03:42:04;98473.72;;;20.16
74750;BMP280;63269;53.330;-6.288;2023-03-23T03:44:30;98468.38;;;20.16
74750;BMP280;63269;53.330;-6.288;2023-03-23T03:46:56;98468.38;;;20.16
74750;BMP280;63269;53.330;-6.288;2023-03-23T03:49:21;98438.41;;;20.15
74750;BMP280;63269;53.330;-6.288;2023-03-23T03:51:48;98438.41;;;20.15
74750;BMP280;63269;53.330;-6.288;2023-03-23T03:54:14;98426.28;;;20.14
74750;BMP280;63269;53.330;-6.288;2023-03-23T03:56:41;98409.63;;;20.14
74750;BMP280;63269;53.330;-6.288;2023-03-23T03:59:08;98409.63;;;20.14
74750;BMP280;63269;53.330;-6.288;2023-03-23T04:01:33;98411.53;;;20.13
74750;BMP280;63269;53.330;-6.288;2023-03-23T04:03:59;98411.53;;;20.13
74750;BMP280;63269;53.330;-6.288;2023-03-23T04:06:24;98402.13;;;20.12
74750;BMP280;63269;53.330;-6.288;2023-03-23T04:08:53;98402.84;;;20.13
74750;BMP280;63269;53.330;-6.288;2023-03-23T04:11:20;98400.91;;;20.13
74750;BMP280;63269;53.330;-6.288;2023-03-23T04:13:46;98397.53;;;20.13
74750;BMP280;63269;53.330;-6.288;2023-03-23T04:16:11;98397.53;;;20.13
74750;BMP280;63269;53.330;-6.288;2023-03-23T04:18:37;98407.91;;;20.11
74750;BMP280;63269;53.330;-6.288;2023-03-23T04:21:03;98396.81;;;20.12
74750;BMP280;63269;53.330;-6.288;2023-03-23T04:23:29;98396.81;;;20.12
74750;BMP280;63269;53.330;-6.288;2023-03-23T04:25:56;98403.31;;;20.11
74750;BMP280;63269;53.330;-6.288;2023-03-23T04:28:24;98408.41;;;20.09
74750;BMP280;63269;53.330;-6.288;2023-03-23T04:30:51;98419.28;;;20.11
74750;BMP280;63269;53.330;-6.288;2023-03-23T04:33:22;98393.88;;;20.10
74750;BMP280;63269;53.330;-6.288;2023-03-23T04:35:50;98393.88;;;20.10
74750;BMP280;63269;53.330;-6.288;2023-03-23T04:38:17;98387.84;;;20.10
74750;BMP280;63269;53.330;-6.288;2023-03-23T04:40:46;98398.47;;;20.10
74750;BMP280;63269;53.330;-6.288;2023-03-23T04:43:11;98398.47;;;20.10
74750;BMP280;63269;53.330;-6.288;2023-03-23T04:45:38;98406.47;;;20.10
74750;BMP280;63269;53.330;-6.288;2023-03-23T04:48:07;98406.47;;;20.10
74750;BMP280;63269;53.330;-6.288;2023-03-23T04:50:33;98406.47;;;20.10
74750;BMP280;63269;53.330;-6.288;2023-03-23T04:53:00;98400.41;;;20.09
74750;BMP280;63269;53.330;-6.288;2023-03-23T04:55:33;98392.41;;;20.04
74750;BMP280;63269;53.330;-6.288;2023-03-23T04:58:06;98405.28;;;20.05
74750;BMP280;63269;53.330;-6.288;2023-03-23T05:00:33;98403.56;;;20.08
74750;BMP280;63269;53.330;-6.288;2023-03-23T05:02:58;98407.44;;;20.07
74750;BMP280;63269;53.330;-6.288;2023-03-23T05:05:24;98394.13;;;20.07
74750;BMP280;63269;53.330;-6.288;2023-03-23T05:07:50;98409.34;;;20.06
74750;BMP280;63269;53.330;-6.288;2023-03-23T05:10:16;98421.94;;;20.06
74750;BMP280;63269;53.330;-6.288;2023-03-23T05:12:43;98414.66;;;20.06
74750;BMP280;63269;53.330;-6.288;2023-03-23T05:15:11;98405.28;;;20.05
74750;BMP280;63269;53.330;-6.288;2023-03-23T05:17:37;98412.50;;;20.05
74750;BMP280;63269;53.330;-6.288;2023-03-23T05:20:04;98417.31;;;20.06
74750;BMP280;63269;53.330;-6.288;2023-03-23T05:22:33;98412.50;;;20.05
74750;BMP280;63269;53.330;-6.288;2023-03-23T05:24:59;98416.13;;;20.07
74750;BMP280;63269;53.330;-6.288;2023-03-23T05:27:29;98409.13;;;20.10
74750;BMP280;63269;53.330;-6.288;2023-03-23T05:29:56;98404.31;;;20.14
74750;BMP280;63269;53.330;-6.288;2023-03-23T05:32:27;98422.69;;;20.17
74750;BMP280;63269;53.330;-6.288;2023-03-23T05:34:55;98416.38;;;20.21
74750;BMP280;63269;53.330;-6.288;2023-03-23T05:37:22;98407.94;;;20.22
74750;BMP280;63269;53.330;-6.288;2023-03-23T05:39:47;98429.44;;;20.24
74750;BMP280;63269;53.330;-6.288;2023-03-23T05:42:12;98409.88;;;20.27
74750;BMP280;63269;53.330;-6.288;2023-03-23T05:44:38;98419.28;;;20.28
74750;BMP280;63269;53.330;-6.288;2023-03-23T05:47:03;98416.38;;;20.32
74750;BMP280;63269;53.330;-6.288;2023-03-23T05:49:29;98414.69;;;20.34
74750;BMP280;63269;53.330;-6.288;2023-03-23T05:51:54;98422.94;;;20.36
74750;BMP280;63269;53.330;-6.288;2023-03-23T05:54:19;98426.31;;;20.43
74750;BMP280;63269;53.330;-6.288;2023-03-23T05:56:45;98431.84;;;20.45
74750;BMP280;63269;53.330;-6.288;2023-03-23T05:59:11;98425.59;;;20.48
74750;BMP280;63269;53.330;-6.288;2023-03-23T06:01:37;98420.75;;;20.52
74750;BMP280;63269;53.330;-6.288;2023-03-23T06:04:03;98413.69;;;20.54
74750;BMP280;63269;53.330;-6.288;2023-03-23T06:06:29;98408.13;;;20.58
74750;BMP280;63269;53.330;-6.288;2023-03-23T06:08:56;98411.03;;;20.60
74750;BMP280;63269;53.330;-6.288;2023-03-23T06:11:22;98405.94;;;20.62
74750;BMP280;63269;53.330;-6.288;2023-03-23T06:13:48;98408.84;;;20.64
74750;BMP280;63269;53.330;-6.288;2023-03-23T06:16:13;98406.44;;;20.66
74750;BMP280;63269;53.330;-6.288;2023-03-23T06:18:39;98412.00;;;20.68
74750;BMP280;63269;53.330;-6.288;2023-03-23T06:21:07;98410.28;;;20.71
74750;BMP280;63269;53.330;-6.288;2023-03-23T06:23:34;98398.44;;;20.72
74750;BMP280;63269;53.330;-6.288;2023-03-23T06:26:02;98398.69;;;20.74
74750;BMP280;63269;53.330;-6.288;2023-03-23T06:28:29;98397.44;;;20.75
74750;BMP280;63269;53.330;-6.288;2023-03-23T06:30:54;98407.63;;;20.76
74750;BMP280;63269;53.330;-6.288;2023-03-23T06:33:20;98390.44;;;20.77
74750;BMP280;63269;53.330;-6.288;2023-03-23T06:35:45;98405.91;;;20.79
74750;BMP280;63269;53.330;-6.288;2023-03-23T06:38:11;98393.59;;;20.82
74750;BMP280;63269;53.330;-6.288;2023-03-23T06:40:37;98399.13;;;20.84
74750;BMP280;63269;53.330;-6.288;2023-03-23T06:43:03;98411.97;;;20.85
74750;BMP280;63269;53.330;-6.288;2023-03-23T06:45:30;98401.31;;;20.85
74750;BMP280;63269;53.330;-6.288;2023-03-23T06:47:56;98398.16;;;20.87
74750;BMP280;63269;53.330;-6.288;2023-03-23T06:50:22;98409.56;;;20.87
74750;BMP280;63269;53.330;-6.288;2023-03-23T06:52:49;98416.56;;;20.90
74750;BMP280;63269;53.330;-6.288;2023-03-23T06:55:15;98417.28;;;20.91
74750;BMP280;63269;53.330;-6.288;2023-03-23T06:57:42;98422.09;;;20.92
74750;BMP280;63269;53.330;-6.288;2023-03-23T07:00:09;98428.19;;;20.93
74750;BMP280;63269;53.330;-6.288;2023-03-23T07:02:37;98428.19;;;20.93
74750;BMP280;63269;53.330;-6.288;2023-03-23T07:05:03;98429.13;;;20.95
74750;BMP280;63269;53.330;-6.288;2023-03-23T07:07:29;98429.13;;;20.95
74750;BMP280;63269;53.330;-6.288;2023-03-23T07:09:54;98422.59;;;20.96
74750;BMP280;63269;53.330;-6.288;2023-03-23T07:12:20;98435.66;;;21.00
74750;BMP280;63269;53.330;-6.288;2023-03-23T07:14:45;98435.66;;;21.00
74750;BMP280;63269;53.330;-6.288;2023-03-23T07:17:11;98435.66;;;21.00
74750;BMP280;63269;53.330;-6.288;2023-03-23T07:19:36;98428.38;;;21.00
74750;BMP280;63269;53.330;-6.288;2023-03-23T07:22:04;98441.50;;;21.04
74750;BMP280;63269;53.330;-6.288;2023-03-23T07:24:30;98446.31;;;21.06
74750;BMP280;63269;53.330;-6.288;2023-03-23T07:26:55;98445.09;;;21.07
74750;BMP280;63269;53.330;-6.288;2023-03-23T07:29:21;98455.25;;;21.08
74750;BMP280;63269;53.330;-6.288;2023-03-23T07:31:46;98451.38;;;21.09
74750;BMP280;63269;53.330;-6.288;2023-03-23T07:34:12;98451.38;;;21.09
74750;BMP280;63269;53.330;-6.288;2023-03-23T07:36:37;98456.22;;;21.11
74750;BMP280;63269;53.330;-6.288;2023-03-23T07:39:04;98459.13;;;21.13
74750;BMP280;63269;53.330;-6.288;2023-03-23T07:41:31;98459.84;;;21.13
74750;BMP280;63269;53.330;-6.288;2023-03-23T07:43:57;98462.03;;;21.15
74750;BMP280;63269;53.330;-6.288;2023-03-23T07:46:22;98462.75;;;21.15
74750;BMP280;63269;53.330;-6.288;2023-03-23T07:48:48;98461.03;;;21.18
74750;BMP280;63269;53.330;-6.288;2023-03-23T07:51:14;98460.56;;;21.19
74750;BMP280;63269;53.330;-6.288;2023-03-23T07:53:42;98464.69;;;21.20
74750;BMP280;63269;53.330;-6.288;2023-03-23T07:56:13;98464.91;;;21.23
74750;BMP280;63269;53.330;-6.288;2023-03-23T07:58:41;98475.09;;;21.24
74750;BMP280;63269;53.330;-6.288;2023-03-23T08:01:06;98467.81;;;21.25
74750;BMP280;63269;53.330;-6.288;2023-03-23T08:03:33;98479.44;;;21.27
74750;BMP280;63269;53.330;-6.288;2023-03-23T08:05:59;98473.63;;;21.29
74750;BMP280;63269;53.330;-6.288;2023-03-23T08:08:25;98474.34;;;21.29
74750;BMP280;63269;53.330;-6.288;2023-03-23T08:10:51;98472.63;;;21.32
74750;BMP280;63269;53.330;-6.288;2023-03-23T08:13:16;98485.25;;;21.31
74750;BMP280;63269;53.330;-6.288;2023-03-23T08:15:42;98482.09;;;21.33
74750;BMP280;63269;53.330;-6.288;2023-03-23T08:18:08;98483.06;;;21.35
74750;BMP280;63269;53.330;-6.288;2023-03-23T08:20:35;98492.97;;;21.35
74750;BMP280;63269;53.330;-6.288;2023-03-23T08:23:00;98466.81;;;21.33
74750;BMP280;63269;53.330;-6.288;2023-03-23T08:25:28;98465.59;;;21.34
74750;BMP280;63269;53.330;-6.288;2023-03-23T08:27:56;98472.88;;;21.34
74750;BMP280;63269;53.330;-6.288;2023-03-23T08:30:23;98482.81;;;21.33
74750;BMP280;63269;53.330;-6.288;2023-03-23T08:32:50;98467.53;;;21.34
74750;BMP280;63269;53.330;-6.288;2023-03-23T08:35:17;98475.78;;;21.30
74750;BMP280;63269;53.330;-6.288;2023-03-23T08:37:43;98465.84;;;21.31
74750;BMP280;63269;53.330;-6.288;2023-03-23T08:40:11;98462.44;;;21.30
74750;BMP280;63269;53.330;-6.288;2023-03-23T08:42:40;98462.25;;;21.28
74750;BMP280;63269;53.330;-6.288;2023-03-23T08:45:08;98458.34;;;21.29
74750;BMP280;63269;53.330;-6.288;2023-03-23T08:47:34;98460.03;;;21.27
74750;BMP280;63269;53.330;-6.288;2023-03-23T08:50:01;98454.50;;;21.25
74750;BMP280;63269;53.330;-6.288;2023-03-23T08:52:27;98454.97;;;21.23
74750;BMP280;63269;53.330;-6.288;2023-03-23T08:54:54;98457.88;;;21.19
74750;BMP280;63269;53.330;-6.288;2023-03-23T08:57:19;98471.69;;;21.18
74750;BMP280;63269;53.330;-6.288;2023-03-23T08:59:45;98463.50;;;21.16
74750;BMP280;63269;53.330;-6.288;2023-03-23T09:02:11;98467.13;;;21.13
74750;BMP280;63269;53.330;-6.288;2023-03-23T09:04:38;98471.00;;;21.12
74750;BMP280;63269;53.330;-6.288;2023-03-23T09:07:05;98476.81;;;21.10
74750;BMP280;63269;53.330;-6.288;2023-03-23T09:09:31;98468.59;;;21.08
74750;BMP280;63269;53.330;-6.288;2023-03-23T09:11:59;98473.91;;;21.08
74750;BMP280;63269;53.330;-6.288;2023-03-23T09:14:25;98475.16;;;21.07
74750;BMP280;63269;53.330;-6.288;2023-03-23T09:16:50;98478.28;;;21.06
74750;BMP280;63269;53.330;-6.288;2023-03-23T09:19:16;98483.38;;;21.04
74750;BMP280;63269;53.330;-6.288;2023-03-23T09:21:41;98488.19;;;21.05
74750;BMP280;63269;53.330;-6.288;2023-03-23T09:24:07;98486.78;;;21.04
74750;BMP280;63269;53.330;-6.288;2023-03-23T09:26:32;98484.59;;;21.03
74750;BMP280;63269;53.330;-6.288;2023-03-23T09:28:58;98488.47;;;21.02
74750;BMP280;63269;53.330;-6.288;2023-03-23T09:31:24;98487.25;;;21.03
74750;BMP280;63269;53.330;-6.288;2023-03-23T09:33:52;98497.66;;;21.00
74750;BMP280;63269;53.330;-6.288;2023-03-23T09:36:21;98498.88;;;20.99
74750;BMP280;63269;53.330;-6.288;2023-03-23T09:38:48;98482.19;;;20.99
74750;BMP280;63269;53.330;-6.288;2023-03-23T09:49:25;98484.84;;;20.93
74750;BMP280;63269;53.330;-6.288;2023-03-23T09:52:23;98488.22;;;20.94
74750;BMP280;63269;53.330;-6.288;2023-03-23T09:54:52;98485.31;;;20.92
74750;BMP280;63269;53.330;-6.288;2023-03-23T09:57:46;98480.00;;;20.92
74750;BMP280;63269;53.330;-6.288;2023-03-23T10:00:20;98491.16;;;20.90
74750;BMP280;63269;53.330;-6.288;2023-03-23T10:03:06;98484.38;;;20.89
74750;BMP280;63269;53.330;-6.288;2023-03-23T10:05:34;98486.81;;;20.87
74750;BMP280;63269;53.330;-6.288;2023-03-23T10:08:02;98479.53;;;20.88
74750;BMP280;63269;53.330;-6.288;2023-03-23T10:13:28;98469.84;;;20.85
74750;BMP280;63269;53.330;-6.288;2023-03-23T10:15:57;98482.44;;;20.84
74750;BMP280;63269;53.330;-6.288;2023-03-23T10:18:30;98499.16;;;20.85
74750;BMP280;63269;53.330;-6.288;2023-03-23T10:20:59;98494.34;;;20.83
74750;BMP280;63269;53.330;-6.288;2023-03-23T10:23:35;98497.47;;;20.82
74750;BMP280;63269;53.330;-6.288;2023-03-23T10:26:21;98492.59;;;20.80
74750;BMP280;63269;53.330;-6.288;2023-03-23T10:28:57;98491.41;;;20.81
74750;BMP280;63269;53.330;-6.288;2023-03-23T10:31:28;98489.94;;;20.80
74750;BMP280;63269;53.330;-6.288;2023-03-23T10:33:58;98493.81;;;20.79
74750;BMP280;63269;53.330;-6.288;2023-03-23T10:36:34;98497.00;;;20.77
74750;BMP280;63269;53.330;-6.288;2023-03-23T10:39:06;98490.91;;;20.77
74750;BMP280;63269;53.330;-6.288;2023-03-23T10:41:35;98503.50;;;20.76
74750;BMP280;63269;53.330;-6.288;2023-03-23T10:44:01;98502.06;;;20.75
74750;BMP280;63269;53.330;-6.288;2023-03-23T10:46:37;98501.34;;;20.75
74750;BMP280;63269;53.330;-6.288;2023-03-23T10:49:10;98504.00;;;20.75
74750;BMP280;63269;53.330;-6.288;2023-03-23T10:51:43;98508.59;;;20.74
74750;BMP280;63269;53.330;-6.288;2023-03-23T10:54:09;98509.06;;;20.73
74750;BMP280;63269;53.330;-6.288;2023-03-23T10:56:38;98510.31;;;20.72
74750;BMP280;63269;53.330;-6.288;2023-03-23T11:01:55;98512.72;;;20.70
74750;BMP280;63269;53.330;-6.288;2023-03-23T11:04:22;98507.88;;;20.68
74750;BMP280;63269;53.330;-6.288;2023-03-23T11:06:51;98513.94;;;20.69
74750;BMP280;63269;53.330;-6.288;2023-03-23T11:09:22;98523.13;;;20.68
74750;BMP280;63269;53.330;-6.288;2023-03-23T11:11:58;98510.28;;;20.66
74750;BMP280;63269;53.330;-6.288;2023-03-23T11:14:36;98507.16;;;20.68
74750;BMP280;63269;53.330;-6.288;2023-03-23T11:17:05;98498.94;;;20.66
74750;BMP280;63269;53.330;-6.288;2023-03-23T11:19:34;98504.97;;;20.66
74750;BMP280;63269;53.330;-6.288;2023-03-23T11:24:32;98508.13;;;20.65
74750;BMP280;63269;53.330;-6.288;2023-03-23T11:26:59;98512.00;;;20.64
74750;BMP280;63269;53.330;-6.288;2023-03-23T11:29:26;98510.06;;;20.64
74750;BMP280;63269;53.330;-6.288;2023-03-23T11:34:30;98506.66;;;20.64
74750;BMP280;63269;53.330;-6.288;2023-03-23T11:37:28;98494.34;;;20.61
74750;BMP280;63269;53.330;-6.288;2023-03-23T11:42:56;98495.78;;;20.62
74750;BMP280;63269;53.330;-6.288;2023-03-23T11:55:59;98486.06;;;20.58
74750;BMP280;63269;53.330;-6.288;2023-03-23T11:58:25;98489.50;;;20.59
74750;BMP280;63269;53.330;-6.288;2023-03-23T12:01:04;98492.88;;;20.59
74750;BMP280;63269;53.330;-6.288;2023-03-23T12:06:13;98497.69;;;20.67
74750;BMP280;63269;53.330;-6.288;2023-03-23T12:08:52;98480.03;;;20.69
74750;BMP280;63269;53.330;-6.288;2023-03-23T12:11:36;98479.31;;;20.74
74750;BMP280;63269;53.330;-6.288;2023-03-23T12:14:30;98471.78;;;20.78
74750;BMP280;63269;53.330;-6.288;2023-03-23T12:20:01;98457.72;;;20.84
74750;BMP280;63269;53.330;-6.288;2023-03-23T12:31:25;98459.66;;;20.94
74750;BMP280;63269;53.330;-6.288;2023-03-23T12:36:27;98450.94;;;20.99
74750;BMP280;63269;53.330;-6.288;2023-03-23T12:39:12;98449.22;;;21.02
74750;BMP280;63269;53.330;-6.288;2023-03-23T12:44:13;98441.22;;;21.08
74750;BMP280;63269;53.330;-6.288;2023-03-23T12:46:49;98444.09;;;21.10
74750;BMP280;63269;53.330;-6.288;2023-03-23T12:52:00;98446.50;;;21.13
74750;BMP280;63269;53.330;-6.288;2023-03-23T12:54:42;98439.97;;;21.14
74750;BMP280;63269;53.330;-6.288;2023-03-23T12:57:14;98428.84;;;21.16
74750;BMP280;63269;53.330;-6.288;2023-03-23T12:59:59;98434.38;;;21.18
74750;BMP280;63269;53.330;-6.288;2023-03-23T13:08:16;98412.06;;;21.21
74750;BMP280;63269;53.330;-6.288;2023-03-23T13:10:51;98419.59;;;21.23
74750;BMP280;63269;53.330;-6.288;2023-03-23T13:13:40;98414.50;;;21.25
74750;BMP280;63269;53.330;-6.288;2023-03-23T13:16:37;98415.19;;;21.25
74750;BMP280;63269;53.330;-6.288;2023-03-23T13:19:14;98421.50;;;21.28
74750;BMP280;63269;53.330;-6.288;2023-03-23T13:21:50;98421.03;;;21.29
74750;BMP280;63269;53.330;-6.288;2023-03-23T13:24:23;98427.06;;;21.30
74750;BMP280;63269;53.330;-6.288;2023-03-23T13:26:50;98421.25;;;21.31
74750;BMP280;63269;53.330;-6.288;2023-03-23T13:29:20;98411.56;;;21.34
74750;BMP280;63269;53.330;-6.288;2023-03-23T13:31:50;98425.59;;;21.34
74750;BMP280;63269;53.330;-6.288;2023-03-23T13:34:26;98402.13;;;21.33
74750;BMP280;63269;53.330;-6.288;2023-03-23T13:37:03;98402.31;;;21.35
74750;BMP280;63269;53.330;-6.288;2023-03-23T13:39:48;98408.88;;;21.34
74750;BMP280;63269;53.330;-6.288;2023-03-23T13:57:56;98384.44;;;21.30
74750;BMP280;63269;53.330;-6.288;2023-03-23T14:10:51;98394.88;;;21.22
74750;BMP280;63269;53.330;-6.288;2023-03-23T14:13:44;98387.38;;;21.20
74750;BMP280;63269;53.330;-6.288;2023-03-23T14:16:31;98373.06;;;21.18
74750;BMP280;63269;53.330;-6.288;2023-03-23T14:19:02;98367.03;;;21.17
74750;BMP280;63269;53.330;-6.288;2023-03-23T14:21:34;98364.88;;;21.16
74750;BMP280;63269;53.330;-6.288;2023-03-23T14:24:09;98352.75;;;21.15
74750;BMP280;63269;53.330;-6.288;2023-03-23T14:26:35;98358.56;;;21.13
74750;BMP280;63269;53.330;-6.288;2023-03-23T14:29:03;98352.53;;;21.13
74750;BMP280;63269;53.330;-6.288;2023-03-23T14:31:29;98350.38;;;21.11
74750;BMP280;63269;53.330;-6.288;2023-03-23T14:33:56;98362.94;;;21.11
74750;BMP280;63269;53.330;-6.288;2023-03-23T14:36:28;98355.44;;;21.09
74750;BMP280;63269;53.330;-6.288;2023-03-23T14:41:41;98359.09;;;21.06
74750;BMP280;63269;53.330;-6.288;2023-03-23T14:44:14;98353.28;;;21.08
74750;BMP280;63269;53.330;-6.288;2023-03-23T14:46:42;98338.97;;;21.05
74750;BMP280;63269;53.330;-6.288;2023-03-23T14:49:14;98338.97;;;21.05
74750;BMP280;63269;53.330;-6.288;2023-03-23T14:51:49;98322.28;;;21.05
74750;BMP280;63269;53.330;-6.288;2023-03-23T14:54:21;98332.94;;;21.05
74750;BMP280;63269;53.330;-6.288;2023-03-23T14:56:47;98328.81;;;21.04
74750;BMP280;63269;53.330;-6.288;2023-03-23T14:59:12;98321.31;;;21.02
74750;BMP280;63269;53.330;-6.288;2023-03-23T15:01:39;98314.78;;;21.03
74750;BMP280;63269;53.330;-6.288;2023-03-23T15:06:35;98317.94;;;21.02
74750;BMP280;63269;53.330;-6.288;2023-03-23T15:09:05;98318.66;;;21.02
74750;BMP280;63269;53.330;-6.288;2023-03-23T15:11:33;98297.34;;;21.02
74750;BMP280;63269;53.330;-6.288;2023-03-23T15:14:10;98285.22;;;21.01
74750;BMP280;63269;53.330;-6.288;2023-03-23T15:16:39;98291.78;;;21.00
74750;BMP280;63269;53.330;-6.288;2023-03-23T15:19:24;98292.50;;;21.00
74750;BMP280;63269;53.330;-6.288;2023-03-23T15:22:03;98290.81;;;20.97
74750;BMP280;63269;53.330;-6.288;2023-03-23T15:24:39;98311.66;;;20.99
74750;BMP280;63269;53.330;-6.288;2023-03-23T15:27:17;98297.63;;;20.98
74750;BMP280;63269;53.330;-6.288;2023-03-23T15:29:51;98284.75;;;20.97
74750;BMP280;63269;53.330;-6.288;2023-03-23T15:32:21;98288.16;;;20.97
74750;BMP280;63269;53.330;-6.288;2023-03-23T15:34:47;98287.41;;;20.97
74750;BMP280;63269;53.330;-6.288;2023-03-23T15:37:24;98281.38;;;20.96
74750;BMP280;63269;53.330;-6.288;2023-03-23T15:39:50;98303.41;;;20.97
74750;BMP280;63269;53.330;-6.288;2023-03-23T15:42:31;98300.03;;;20.96
74750;BMP280;63269;53.330;-6.288;2023-03-23T15:45:20;98295.91;;;20.95
74750;BMP280;63269;53.330;-6.288;2023-03-23T15:47:48;98299.81;;;20.94
74750;BMP280;63269;53.330;-6.288;2023-03-23T15:50:34;98284.53;;;20.95
74750;BMP280;63269;53.330;-6.288;2023-03-23T15:53:10;98280.41;;;20.94
74750;BMP280;63269;53.330;-6.288;2023-03-23T15:55:40;98286.97;;;20.93
74750;BMP280;63269;53.330;-6.288;2023-03-23T15:58:13;98281.16;;;20.94
74750;BMP280;63269;53.330;-6.288;2023-03-23T16:00:39;98279.00;;;20.93